Etusivu
METAR-TAF:

METAR-TAF

Lentoasemat :

Arkangelin lentoasema

Arkangeli, Venäjä

Leveyspiiri: 64-30N, Pituuspiiri: 040-44E, korkeus merenpinnasta: 13 m

Tämänhetkinen sää

Tämä raportti tehtiin 31 minuuttia sitten, kello 20.30 UTC
Tuuli 4 kn lounaasta
Lämpötila 6°C
Kosteus 100%
Ilmanpaine 1003 hPa
Näkyvyys 10 km tai enemmän
Hajanaisia pilviä 2000 ft:n korkeudessa

METAR: ULAA 182030Z 22002MPS 9999 SCT020 06/06 Q1003 R08/290060 NOSIG RMK QFE751/1002

Aika: 00:01 (21:01 UTC)


TAF: puuttuu

Säähavainnot ja -ennusteet yli 4000 lentoasemalta (METAR- ja TAF-raportit).

Käytössä olevat sääasemat on merkitty karttaan keltaisilla ja punaisilla pisteillä.

Aseta hiiri pisteen päälle nähdäksesi sääaseman nimen.

Klikkaa sitten nähdäksesi säähavainnot ja -ennusteet.

Kartan vaihtaminen: klikkaa mustalla rastilla varustettuja vihreitä pisteitä, niin voit zoomata sisään; viivalla varustettua vihreää pistettä, niin voit zoomata ulos tai vihreitä nuolia, niin pääset viereisille kartoille.


METAR-TAF: